sensor_id;sensor_type;location;lat;lon;timestamp;P1;durP1;ratioP1;P2;durP2;ratioP2
21827;SDS011;11076;47.942;11.804;2022-10-18T00:00:37;3.08;;;1.80;;
21827;SDS011;11076;47.942;11.804;2022-10-18T00:05:40;6.75;;;2.22;;
21827;SDS011;11076;47.942;11.804;2022-10-18T00:10:42;5.28;;;1.73;;
21827;SDS011;11076;47.942;11.804;2022-10-18T00:15:49;4.57;;;1.67;;
21827;SDS011;11076;47.942;11.804;2022-10-18T00:21:00;5.13;;;2.25;;
21827;SDS011;11076;47.942;11.804;2022-10-18T00:36:22;6.00;;;2.25;;
21827;SDS011;11076;47.942;11.804;2022-10-18T00:41:27;6.30;;;1.85;;
21827;SDS011;11076;47.942;11.804;2022-10-18T00:46:41;3.47;;;1.73;;
21827;SDS011;11076;47.942;11.804;2022-10-18T00:51:50;1.88;;;1.67;;
21827;SDS011;11076;47.942;11.804;2022-10-18T00:56:57;6.85;;;1.63;;
21827;SDS011;11076;47.942;11.804;2022-10-18T01:02:00;1.90;;;1.70;;
21827;SDS011;11076;47.942;11.804;2022-10-18T01:33:56;5.35;;;1.75;;
21827;SDS011;11076;47.942;11.804;2022-10-18T01:39:05;3.67;;;1.77;;
21827;SDS011;11076;47.942;11.804;2022-10-18T01:44:14;2.45;;;1.60;;
21827;SDS011;11076;47.942;11.804;2022-10-18T01:49:19;2.22;;;1.90;;
21827;SDS011;11076;47.942;11.804;2022-10-18T01:54:32;1.80;;;1.70;;
21827;SDS011;11076;47.942;11.804;2022-10-18T02:05:02;2.70;;;2.00;;
21827;SDS011;11076;47.942;11.804;2022-10-18T02:10:09;2.88;;;2.00;;
21827;SDS011;11076;47.942;11.804;2022-10-18T02:15:23;3.25;;;1.80;;
21827;SDS011;11076;47.942;11.804;2022-10-18T02:20:29;2.25;;;1.48;;
21827;SDS011;11076;47.942;11.804;2022-10-18T02:25:34;5.53;;;2.08;;
21827;SDS011;11076;47.942;11.804;2022-10-18T02:30:41;5.38;;;2.10;;
21827;SDS011;11076;47.942;11.804;2022-10-18T02:35:54;3.03;;;2.03;;
21827;SDS011;11076;47.942;11.804;2022-10-18T02:41:03;8.25;;;2.10;;
21827;SDS011;11076;47.942;11.804;2022-10-18T02:46:06;4.30;;;1.90;;
21827;SDS011;11076;47.942;11.804;2022-10-18T02:51:08;6.28;;;2.00;;
21827;SDS011;11076;47.942;11.804;2022-10-18T02:56:10;5.38;;;1.70;;
21827;SDS011;11076;47.942;11.804;2022-10-18T03:01:13;5.90;;;1.75;;
21827;SDS011;11076;47.942;11.804;2022-10-18T03:06:15;5.95;;;1.85;;
21827;SDS011;11076;47.942;11.804;2022-10-18T03:11:18;5.15;;;1.83;;
21827;SDS011;11076;47.942;11.804;2022-10-18T03:16:20;1.42;;;1.33;;
21827;SDS011;11076;47.942;11.804;2022-10-18T03:21:23;5.85;;;2.90;;
21827;SDS011;11076;47.942;11.804;2022-10-18T03:26:25;2.67;;;1.90;;
21827;SDS011;11076;47.942;11.804;2022-10-18T03:31:27;6.78;;;2.50;;
21827;SDS011;11076;47.942;11.804;2022-10-18T03:36:35;2.70;;;2.00;;
21827;SDS011;11076;47.942;11.804;2022-10-18T03:41:37;2.55;;;1.73;;
21827;SDS011;11076;47.942;11.804;2022-10-18T03:46:40;1.85;;;1.75;;
21827;SDS011;11076;47.942;11.804;2022-10-18T03:51:42;2.92;;;1.80;;
21827;SDS011;11076;47.942;11.804;2022-10-18T03:56:44;4.72;;;1.73;;
21827;SDS011;11076;47.942;11.804;2022-10-18T04:01:47;5.50;;;2.30;;
21827;SDS011;11076;47.942;11.804;2022-10-18T04:06:49;4.25;;;1.90;;
21827;SDS011;11076;47.942;11.804;2022-10-18T04:11:52;5.50;;;1.75;;
21827;SDS011;11076;47.942;11.804;2022-10-18T04:16:54;2.45;;;1.95;;
21827;SDS011;11076;47.942;11.804;2022-10-18T04:21:57;3.28;;;1.60;;
21827;SDS011;11076;47.942;11.804;2022-10-18T04:26:59;2.67;;;1.90;;
21827;SDS011;11076;47.942;11.804;2022-10-18T04:32:01;4.68;;;2.10;;
21827;SDS011;11076;47.942;11.804;2022-10-18T04:37:04;1.70;;;1.50;;
21827;SDS011;11076;47.942;11.804;2022-10-18T04:42:06;3.15;;;1.60;;
21827;SDS011;11076;47.942;11.804;2022-10-18T04:47:08;4.13;;;1.60;;
21827;SDS011;11076;47.942;11.804;2022-10-18T04:52:11;6.00;;;1.80;;
21827;SDS011;11076;47.942;11.804;2022-10-18T04:57:13;4.32;;;1.80;;
21827;SDS011;11076;47.942;11.804;2022-10-18T05:02:15;2.35;;;1.92;;
21827;SDS011;11076;47.942;11.804;2022-10-18T05:07:18;3.25;;;2.03;;
21827;SDS011;11076;47.942;11.804;2022-10-18T05:12:20;1.90;;;1.80;;
21827;SDS011;11076;47.942;11.804;2022-10-18T05:17:23;4.78;;;1.88;;
21827;SDS011;11076;47.942;11.804;2022-10-18T05:22:26;3.55;;;2.03;;
21827;SDS011;11076;47.942;11.804;2022-10-18T05:27:28;5.30;;;2.17;;
21827;SDS011;11076;47.942;11.804;2022-10-18T05:32:30;2.28;;;1.75;;
21827;SDS011;11076;47.942;11.804;2022-10-18T05:37:33;2.33;;;1.40;;
21827;SDS011;11076;47.942;11.804;2022-10-18T05:42:35;2.00;;;1.80;;
21827;SDS011;11076;47.942;11.804;2022-10-18T05:47:38;6.75;;;1.95;;
21827;SDS011;11076;47.942;11.804;2022-10-18T05:52:40;3.08;;;1.73;;
21827;SDS011;11076;47.942;11.804;2022-10-18T05:57:42;8.57;;;2.53;;
21827;SDS011;11076;47.942;11.804;2022-10-18T06:02:46;3.08;;;2.10;;
21827;SDS011;11076;47.942;11.804;2022-10-18T06:07:48;4.85;;;2.00;;
21827;SDS011;11076;47.942;11.804;2022-10-18T06:12:50;4.93;;;2.10;;
21827;SDS011;11076;47.942;11.804;2022-10-18T06:17:53;6.00;;;1.80;;
21827;SDS011;11076;47.942;11.804;2022-10-18T06:22:55;2.47;;;1.77;;
21827;SDS011;11076;47.942;11.804;2022-10-18T06:27:58;5.43;;;1.75;;
21827;SDS011;11076;47.942;11.804;2022-10-18T06:33:00;5.82;;;1.83;;
21827;SDS011;11076;47.942;11.804;2022-10-18T06:38:02;3.47;;;2.05;;
21827;SDS011;11076;47.942;11.804;2022-10-18T06:43:05;7.07;;;2.20;;
21827;SDS011;11076;47.942;11.804;2022-10-18T06:48:17;5.00;;;1.70;;
21827;SDS011;11076;47.942;11.804;2022-10-18T06:53:26;3.83;;;1.65;;
21827;SDS011;11076;47.942;11.804;2022-10-18T06:58:33;3.90;;;1.80;;
21827;SDS011;11076;47.942;11.804;2022-10-18T07:03:36;1.58;;;1.48;;
21827;SDS011;11076;47.942;11.804;2022-10-18T07:08:39;1.92;;;1.58;;
21827;SDS011;11076;47.942;11.804;2022-10-18T07:13:42;2.10;;;1.90;;
21827;SDS011;11076;47.942;11.804;2022-10-18T07:18:45;10.88;;;1.70;;
21827;SDS011;11076;47.942;11.804;2022-10-18T07:23:50;2.15;;;1.92;;
21827;SDS011;11076;47.942;11.804;2022-10-18T07:28:55;3.67;;;1.70;;
21827;SDS011;11076;47.942;11.804;2022-10-18T07:34:00;3.97;;;1.98;;
21827;SDS011;11076;47.942;11.804;2022-10-18T07:39:04;4.80;;;1.90;;
21827;SDS011;11076;47.942;11.804;2022-10-18T07:44:06;7.15;;;2.15;;
21827;SDS011;11076;47.942;11.804;2022-10-18T07:49:09;5.35;;;2.08;;
21827;SDS011;11076;47.942;11.804;2022-10-18T07:54:11;4.20;;;2.33;;
21827;SDS011;11076;47.942;11.804;2022-10-18T07:59:13;2.40;;;1.83;;
21827;SDS011;11076;47.942;11.804;2022-10-18T08:04:16;3.65;;;2.10;;
21827;SDS011;11076;47.942;11.804;2022-10-18T08:09:18;4.90;;;2.00;;
21827;SDS011;11076;47.942;11.804;2022-10-18T08:14:20;4.97;;;1.80;;
21827;SDS011;11076;47.942;11.804;2022-10-18T08:19:23;3.53;;;1.83;;
21827;SDS011;11076;47.942;11.804;2022-10-18T08:24:25;2.97;;;1.80;;
21827;SDS011;11076;47.942;11.804;2022-10-18T08:29:27;2.55;;;1.65;;
21827;SDS011;11076;47.942;11.804;2022-10-18T08:34:33;7.38;;;2.13;;
21827;SDS011;11076;47.942;11.804;2022-10-18T08:39:35;3.55;;;2.17;;
21827;SDS011;11076;47.942;11.804;2022-10-18T08:44:45;2.55;;;2.35;;
21827;SDS011;11076;47.942;11.804;2022-10-18T09:00:30;3.33;;;2.47;;
21827;SDS011;11076;47.942;11.804;2022-10-18T09:05:41;8.38;;;2.38;;
21827;SDS011;11076;47.942;11.804;2022-10-18T09:17:03;5.78;;;2.10;;
21827;SDS011;11076;47.942;11.804;2022-10-18T09:21:54;7.53;;;2.15;;
21827;SDS011;11076;47.942;11.804;2022-10-18T09:27:04;5.40;;;2.50;;
21827;SDS011;11076;47.942;11.804;2022-10-18T09:37:54;2.10;;;1.90;;
21827;SDS011;11076;47.942;11.804;2022-10-18T09:43:08;6.47;;;2.28;;
21827;SDS011;11076;47.942;11.804;2022-10-18T09:58:39;4.75;;;2.65;;
21827;SDS011;11076;47.942;11.804;2022-10-18T10:03:47;2.63;;;1.95;;
21827;SDS011;11076;47.942;11.804;2022-10-18T10:14:19;4.57;;;2.10;;
21827;SDS011;11076;47.942;11.804;2022-10-18T10:19:26;5.10;;;2.08;;
21827;SDS011;11076;47.942;11.804;2022-10-18T10:24:48;4.20;;;2.15;;
21827;SDS011;11076;47.942;11.804;2022-10-18T10:29:52;3.10;;;2.00;;
21827;SDS011;11076;47.942;11.804;2022-10-18T10:34:58;8.93;;;2.63;;
21827;SDS011;11076;47.942;11.804;2022-10-18T10:45:19;4.53;;;2.33;;
21827;SDS011;11076;47.942;11.804;2022-10-18T10:50:23;2.22;;;2.00;;
21827;SDS011;11076;47.942;11.804;2022-10-18T10:55:30;3.75;;;2.13;;
21827;SDS011;11076;47.942;11.804;2022-10-18T11:05:45;3.22;;;2.00;;
21827;SDS011;11076;47.942;11.804;2022-10-18T11:10:52;8.30;;;2.05;;
21827;SDS011;11076;47.942;11.804;2022-10-18T11:16:03;5.90;;;2.33;;
21827;SDS011;11076;47.942;11.804;2022-10-18T11:21:28;3.88;;;2.15;;
21827;SDS011;11076;47.942;11.804;2022-10-18T11:42:45;3.30;;;2.47;;
21827;SDS011;11076;47.942;11.804;2022-10-18T12:19:58;4.93;;;2.88;;
21827;SDS011;11076;47.942;11.804;2022-10-18T12:25:12;4.80;;;2.50;;
21827;SDS011;11076;47.942;11.804;2022-10-18T12:30:20;3.60;;;2.03;;
21827;SDS011;11076;47.942;11.804;2022-10-18T12:35:32;10.48;;;2.00;;
21827;SDS011;11076;47.942;11.804;2022-10-18T12:40:47;3.20;;;1.88;;
21827;SDS011;11076;47.942;11.804;2022-10-18T12:45:54;7.40;;;2.17;;
21827;SDS011;11076;47.942;11.804;2022-10-18T12:51:02;5.05;;;3.08;;
21827;SDS011;11076;47.942;11.804;2022-10-18T13:01:43;5.53;;;2.75;;
21827;SDS011;11076;47.942;11.804;2022-10-18T13:22:29;6.38;;;2.70;;
21827;SDS011;11076;47.942;11.804;2022-10-18T13:38:16;4.15;;;2.50;;
21827;SDS011;11076;47.942;11.804;2022-10-18T13:43:47;9.30;;;3.03;;
21827;SDS011;11076;47.942;11.804;2022-10-18T14:04:41;7.43;;;2.90;;
21827;SDS011;11076;47.942;11.804;2022-10-18T14:10:03;15.73;;;2.83;;
21827;SDS011;11076;47.942;11.804;2022-10-18T14:15:14;9.93;;;2.50;;
21827;SDS011;11076;47.942;11.804;2022-10-18T14:25:49;6.80;;;2.60;;
21827;SDS011;11076;47.942;11.804;2022-10-18T14:30:53;4.15;;;1.83;;
21827;SDS011;11076;47.942;11.804;2022-10-18T14:35:59;11.35;;;2.22;;
21827;SDS011;11076;47.942;11.804;2022-10-18T14:46:21;4.65;;;1.60;;
21827;SDS011;11076;47.942;11.804;2022-10-18T14:51:27;9.80;;;2.55;;
21827;SDS011;11076;47.942;11.804;2022-10-18T14:56:37;9.95;;;2.30;;
21827;SDS011;11076;47.942;11.804;2022-10-18T15:01:49;6.20;;;2.60;;
21827;SDS011;11076;47.942;11.804;2022-10-18T15:06:54;10.73;;;2.60;;
21827;SDS011;11076;47.942;11.804;2022-10-18T15:11:57;8.23;;;2.25;;
21827;SDS011;11076;47.942;11.804;2022-10-18T15:17:03;10.50;;;2.50;;
21827;SDS011;11076;47.942;11.804;2022-10-18T15:22:22;6.50;;;2.60;;
21827;SDS011;11076;47.942;11.804;2022-10-18T15:27:34;8.18;;;2.67;;
21827;SDS011;11076;47.942;11.804;2022-10-18T15:32:45;2.67;;;2.35;;
21827;SDS011;11076;47.942;11.804;2022-10-18T15:37:50;7.38;;;2.35;;
21827;SDS011;11076;47.942;11.804;2022-10-18T15:42:54;5.28;;;2.17;;
21827;SDS011;11076;47.942;11.804;2022-10-18T15:54:12;8.55;;;2.13;;
21827;SDS011;11076;47.942;11.804;2022-10-18T15:58:44;11.75;;;2.40;;
21827;SDS011;11076;47.942;11.804;2022-10-18T16:03:48;5.95;;;2.45;;
21827;SDS011;11076;47.942;11.804;2022-10-18T16:08:52;9.18;;;2.53;;
21827;SDS011;11076;47.942;11.804;2022-10-18T16:13:54;14.40;;;3.05;;
21827;SDS011;11076;47.942;11.804;2022-10-18T16:18:57;13.00;;;2.55;;
21827;SDS011;11076;47.942;11.804;2022-10-18T16:23:59;8.43;;;2.20;;
21827;SDS011;11076;47.942;11.804;2022-10-18T16:29:02;12.27;;;4.10;;
21827;SDS011;11076;47.942;11.804;2022-10-18T16:34:05;7.53;;;2.72;;
21827;SDS011;11076;47.942;11.804;2022-10-18T16:39:11;6.72;;;2.42;;
21827;SDS011;11076;47.942;11.804;2022-10-18T16:44:16;10.23;;;3.17;;
21827;SDS011;11076;47.942;11.804;2022-10-18T16:49:23;6.80;;;2.88;;
21827;SDS011;11076;47.942;11.804;2022-10-18T16:54:27;10.50;;;3.17;;
21827;SDS011;11076;47.942;11.804;2022-10-18T16:59:29;15.02;;;2.10;;
21827;SDS011;11076;47.942;11.804;2022-10-18T17:04:32;8.93;;;3.30;;
21827;SDS011;11076;47.942;11.804;2022-10-18T17:09:35;7.32;;;2.97;;
21827;SDS011;11076;47.942;11.804;2022-10-18T17:14:37;8.05;;;2.20;;
21827;SDS011;11076;47.942;11.804;2022-10-18T17:19:40;7.53;;;3.50;;
21827;SDS011;11076;47.942;11.804;2022-10-18T17:24:42;8.20;;;2.65;;
21827;SDS011;11076;47.942;11.804;2022-10-18T17:29:44;6.88;;;2.83;;
21827;SDS011;11076;47.942;11.804;2022-10-18T17:34:47;11.95;;;2.80;;
21827;SDS011;11076;47.942;11.804;2022-10-18T17:39:49;14.10;;;2.95;;
21827;SDS011;11076;47.942;11.804;2022-10-18T17:44:52;7.70;;;3.35;;
21827;SDS011;11076;47.942;11.804;2022-10-18T17:49:54;17.90;;;6.78;;
21827;SDS011;11076;47.942;11.804;2022-10-18T17:54:57;20.15;;;7.88;;
21827;SDS011;11076;47.942;11.804;2022-10-18T17:59:59;11.98;;;6.90;;
21827;SDS011;11076;47.942;11.804;2022-10-18T18:05:12;15.45;;;5.40;;
21827;SDS011;11076;47.942;11.804;2022-10-18T18:10:15;9.32;;;4.10;;
21827;SDS011;11076;47.942;11.804;2022-10-18T18:15:17;11.07;;;2.90;;
21827;SDS011;11076;47.942;11.804;2022-10-18T18:20:19;9.43;;;3.03;;
21827;SDS011;11076;47.942;11.804;2022-10-18T18:25:22;6.90;;;2.85;;
21827;SDS011;11076;47.942;11.804;2022-10-18T18:30:24;7.15;;;2.83;;
21827;SDS011;11076;47.942;11.804;2022-10-18T18:35:27;7.68;;;3.58;;
21827;SDS011;11076;47.942;11.804;2022-10-18T18:40:29;15.52;;;3.40;;
21827;SDS011;11076;47.942;11.804;2022-10-18T18:45:32;11.35;;;3.78;;
21827;SDS011;11076;47.942;11.804;2022-10-18T18:50:34;16.88;;;3.78;;
21827;SDS011;11076;47.942;11.804;2022-10-18T18:55:38;9.77;;;3.15;;
21827;SDS011;11076;47.942;11.804;2022-10-18T19:00:42;9.55;;;4.70;;
21827;SDS011;11076;47.942;11.804;2022-10-18T19:05:45;6.10;;;2.80;;
21827;SDS011;11076;47.942;11.804;2022-10-18T19:10:47;11.77;;;3.25;;
21827;SDS011;11076;47.942;11.804;2022-10-18T19:15:50;6.85;;;2.80;;
21827;SDS011;11076;47.942;11.804;2022-10-18T19:20:52;9.15;;;3.60;;
21827;SDS011;11076;47.942;11.804;2022-10-18T19:26:07;7.75;;;3.35;;
21827;SDS011;11076;47.942;11.804;2022-10-18T19:31:10;7.90;;;4.30;;
21827;SDS011;11076;47.942;11.804;2022-10-18T19:36:12;15.68;;;6.13;;
21827;SDS011;11076;47.942;11.804;2022-10-18T19:41:15;11.50;;;4.00;;
21827;SDS011;11076;47.942;11.804;2022-10-18T19:46:17;13.68;;;5.50;;
21827;SDS011;11076;47.942;11.804;2022-10-18T19:51:20;27.27;;;15.25;;
21827;SDS011;11076;47.942;11.804;2022-10-18T19:56:26;23.83;;;9.73;;
21827;SDS011;11076;47.942;11.804;2022-10-18T20:01:29;21.02;;;7.25;;
21827;SDS011;11076;47.942;11.804;2022-10-18T20:06:32;10.60;;;4.72;;
21827;SDS011;11076;47.942;11.804;2022-10-18T20:11:34;8.52;;;4.90;;
21827;SDS011;11076;47.942;11.804;2022-10-18T20:16:37;16.30;;;6.15;;
21827;SDS011;11076;47.942;11.804;2022-10-18T20:21:39;9.05;;;4.82;;
21827;SDS011;11076;47.942;11.804;2022-10-18T20:26:42;11.32;;;4.85;;
21827;SDS011;11076;47.942;11.804;2022-10-18T20:31:44;10.90;;;5.35;;
21827;SDS011;11076;47.942;11.804;2022-10-18T20:36:48;5.55;;;4.65;;
21827;SDS011;11076;47.942;11.804;2022-10-18T20:41:50;10.50;;;4.25;;
21827;SDS011;11076;47.942;11.804;2022-10-18T20:46:53;11.43;;;4.93;;
21827;SDS011;11076;47.942;11.804;2022-10-18T20:51:55;14.40;;;5.78;;
21827;SDS011;11076;47.942;11.804;2022-10-18T20:56:57;16.33;;;5.40;;
21827;SDS011;11076;47.942;11.804;2022-10-18T21:02:00;9.07;;;4.88;;
21827;SDS011;11076;47.942;11.804;2022-10-18T21:07:02;15.30;;;4.95;;
21827;SDS011;11076;47.942;11.804;2022-10-18T21:12:04;10.85;;;5.25;;
21827;SDS011;11076;47.942;11.804;2022-10-18T21:17:07;11.13;;;5.28;;
21827;SDS011;11076;47.942;11.804;2022-10-18T21:22:09;12.90;;;5.40;;
21827;SDS011;11076;47.942;11.804;2022-10-18T21:27:11;9.75;;;5.57;;
21827;SDS011;11076;47.942;11.804;2022-10-18T21:32:14;9.13;;;5.93;;
21827;SDS011;11076;47.942;11.804;2022-10-18T21:37:17;9.00;;;5.03;;
21827;SDS011;11076;47.942;11.804;2022-10-18T21:42:19;13.00;;;6.20;;
21827;SDS011;11076;47.942;11.804;2022-10-18T21:47:22;10.57;;;6.20;;
21827;SDS011;11076;47.942;11.804;2022-10-18T21:52:24;10.30;;;5.88;;
21827;SDS011;11076;47.942;11.804;2022-10-18T21:57:26;9.13;;;5.20;;
21827;SDS011;11076;47.942;11.804;2022-10-18T22:02:29;12.77;;;5.47;;
21827;SDS011;11076;47.942;11.804;2022-10-18T22:07:31;11.50;;;5.75;;
21827;SDS011;11076;47.942;11.804;2022-10-18T22:12:34;9.35;;;5.70;;
21827;SDS011;11076;47.942;11.804;2022-10-18T22:17:36;13.48;;;6.40;;
21827;SDS011;11076;47.942;11.804;2022-10-18T22:22:38;10.25;;;6.35;;
21827;SDS011;11076;47.942;11.804;2022-10-18T22:27:41;9.95;;;6.18;;
21827;SDS011;11076;47.942;11.804;2022-10-18T22:32:43;15.63;;;5.68;;
21827;SDS011;11076;47.942;11.804;2022-10-18T22:37:45;7.25;;;5.20;;
21827;SDS011;11076;47.942;11.804;2022-10-18T22:42:48;8.40;;;5.10;;
21827;SDS011;11076;47.942;11.804;2022-10-18T22:47:50;7.35;;;5.35;;
21827;SDS011;11076;47.942;11.804;2022-10-18T22:52:52;9.07;;;5.95;;
21827;SDS011;11076;47.942;11.804;2022-10-18T22:57:55;7.88;;;5.35;;
21827;SDS011;11076;47.942;11.804;2022-10-18T23:02:57;9.93;;;5.75;;
21827;SDS011;11076;47.942;11.804;2022-10-18T23:08:00;11.85;;;5.53;;
21827;SDS011;11076;47.942;11.804;2022-10-18T23:13:02;11.93;;;4.95;;
21827;SDS011;11076;47.942;11.804;2022-10-18T23:18:06;9.07;;;5.65;;
21827;SDS011;11076;47.942;11.804;2022-10-18T23:23:08;11.40;;;6.07;;
21827;SDS011;11076;47.942;11.804;2022-10-18T23:28:11;8.50;;;6.15;;
21827;SDS011;11076;47.942;11.804;2022-10-18T23:33:14;11.75;;;6.15;;
21827;SDS011;11076;47.942;11.804;2022-10-18T23:38:16;13.55;;;6.43;;
21827;SDS011;11076;47.942;11.804;2022-10-18T23:43:19;9.35;;;6.47;;
21827;SDS011;11076;47.942;11.804;2022-10-18T23:48:21;14.18;;;6.93;;
21827;SDS011;11076;47.942;11.804;2022-10-18T23:53:23;8.73;;;6.38;;
21827;SDS011;11076;47.942;11.804;2022-10-18T23:58:26;13.60;;;6.57;;
